createdAt,value
2023-04-15T00:02:02.344Z,7.91
2023-04-15T00:04:33.986Z,7.63
2023-04-15T00:07:03.296Z,7.48
2023-04-15T00:09:32.458Z,7.51
2023-04-15T00:12:02.246Z,7.58
2023-04-15T00:14:31.879Z,7.56
2023-04-15T00:17:01.406Z,7.76
2023-04-15T00:19:35.925Z,7.73
2023-04-15T00:22:20.172Z,7.72
2023-04-15T00:28:31.281Z,7.88
2023-04-15T00:31:00.276Z,7.86
2023-04-15T00:33:31.513Z,7.76
2023-04-15T00:36:00.348Z,7.76
2023-04-15T00:38:29.421Z,7.89
2023-04-15T00:41:00.410Z,7.94
2023-04-15T00:43:30.689Z,7.90
2023-04-15T00:46:04.278Z,7.69
2023-04-15T00:48:34.032Z,7.66
2023-04-15T00:51:10.616Z,7.74
2023-04-15T00:53:43.007Z,7.95
2023-04-15T00:56:13.692Z,7.92
2023-04-15T00:58:43.360Z,8.01
2023-04-15T01:01:13.737Z,7.92
2023-04-15T01:03:42.855Z,7.76
2023-04-15T01:06:15.702Z,7.64
2023-04-15T01:08:47.581Z,7.57
2023-04-15T01:11:17.507Z,7.59
2023-04-15T01:13:47.961Z,7.51
2023-04-15T01:16:19.181Z,7.50
2023-04-15T01:18:48.190Z,7.44
2023-04-15T01:21:17.235Z,7.43
2023-04-15T01:23:48.612Z,7.42
2023-04-15T01:26:18.970Z,7.46
2023-04-15T01:28:49.540Z,7.46
2023-04-15T01:31:24.108Z,7.47
2023-04-15T01:33:50.422Z,7.34
2023-04-15T01:36:20.050Z,7.32
2023-04-15T01:38:49.340Z,7.24
2023-04-15T01:41:19.782Z,7.16
2023-04-15T01:43:48.863Z,7.07
2023-04-15T01:46:18.023Z,7.12
2023-04-15T01:48:47.510Z,7.02
2023-04-15T01:51:16.841Z,6.89
2023-04-15T01:53:47.540Z,6.88
2023-04-15T01:56:17.222Z,6.88
2023-04-15T01:58:46.988Z,6.72
2023-04-15T02:01:17.222Z,6.72
2023-04-15T02:03:47.211Z,6.72
2023-04-15T02:06:18.519Z,6.73
2023-04-15T02:08:47.602Z,6.66
2023-04-15T02:11:16.601Z,6.56
2023-04-15T02:13:47.301Z,6.47
2023-04-15T02:16:22.248Z,6.52
2023-04-15T05:40:11.052Z,7.29
2023-04-15T05:42:40.229Z,7.60
2023-04-15T05:45:11.332Z,7.85
2023-04-15T05:47:43.619Z,7.76
2023-04-15T05:50:12.889Z,8.04
2023-04-15T05:52:42.242Z,8.06
2023-04-15T05:55:15.496Z,8.31
2023-04-15T05:57:44.567Z,8.39
2023-04-15T06:00:16.030Z,8.54
2023-04-15T06:02:45.106Z,8.68
2023-04-15T06:05:16.711Z,8.79
2023-04-15T06:07:48.613Z,8.96
2023-04-15T06:10:17.873Z,9.04
2023-04-15T06:12:56.879Z,8.98
2023-04-15T06:15:27.412Z,9.04
2023-04-15T06:18:04.778Z,8.79
2023-04-15T06:20:36.101Z,8.97
2023-04-15T06:23:11.747Z,9.19
2023-04-15T06:25:45.844Z,9.18
2023-04-15T06:28:14.805Z,9.38
2023-04-15T06:30:49.104Z,9.41
2023-04-15T06:33:18.924Z,9.46
2023-04-15T06:35:49.614Z,9.53
2023-04-15T06:38:18.887Z,9.68
2023-04-15T06:40:48.187Z,9.83
2023-04-15T06:43:17.386Z,10.05
2023-04-15T06:45:51.817Z,10.21
2023-04-15T06:48:20.657Z,10.21
2023-04-15T06:50:51.181Z,10.24
2023-04-15T06:53:20.876Z,10.43
2023-04-15T06:55:49.621Z,10.29
2023-04-15T06:58:18.619Z,10.49
2023-04-15T07:00:48.106Z,10.71
2023-04-15T07:03:18.627Z,10.89
2023-04-15T07:05:47.837Z,10.93
2023-04-15T07:08:16.941Z,11.10
2023-04-15T07:10:49.124Z,11.15
2023-04-15T07:13:19.636Z,11.35
2023-04-15T07:15:48.439Z,11.43
2023-04-15T07:18:17.408Z,11.23
2023-04-15T07:20:46.482Z,11.48
2023-04-15T07:23:15.502Z,11.44
2023-04-15T07:25:56.289Z,11.43
2023-04-15T07:28:27.021Z,11.71
2023-04-15T07:30:57.894Z,11.92
2023-04-15T07:33:33.111Z,12.16
2023-04-15T07:36:05.455Z,12.18
2023-04-15T07:38:55.511Z,12.40
2023-04-15T07:41:26.388Z,12.53
2023-04-15T07:43:55.561Z,12.61
2023-04-15T07:46:25.107Z,12.76
2023-04-15T07:48:57.633Z,12.86
2023-04-15T07:51:27.120Z,12.68
2023-04-15T07:53:56.614Z,12.79
2023-04-15T07:56:28.571Z,12.68
2023-04-15T07:58:57.637Z,12.64
2023-04-15T08:01:26.914Z,12.90
2023-04-15T08:04:10.979Z,12.98
2023-04-15T08:13:18.956Z,13.74
2023-04-15T08:15:52.324Z,13.85
2023-04-15T08:18:23.201Z,13.84
2023-04-15T08:21:04.466Z,13.54
2023-04-15T08:27:17.497Z,14.16
2023-04-15T08:29:47.883Z,14.25
2023-04-15T08:32:20.372Z,14.40
2023-04-15T08:34:49.449Z,14.93
2023-04-15T08:37:20.400Z,14.67
2023-04-15T08:40:17.918Z,14.75
2023-04-15T08:42:54.745Z,15.39
2023-04-15T08:45:30.699Z,15.67
2023-04-15T08:48:01.230Z,15.78
2023-04-15T08:50:33.013Z,16.40
2023-04-15T08:53:02.430Z,16.51
2023-04-15T08:55:35.696Z,16.45
2023-04-15T08:58:08.031Z,16.88
2023-04-15T09:00:39.285Z,16.85
2023-04-15T09:03:09.235Z,16.70
2023-04-15T09:05:41.637Z,16.79
2023-04-15T09:08:10.649Z,16.58
2023-04-15T09:10:40.169Z,16.20
2023-04-15T09:13:10.798Z,15.77
2023-04-15T09:15:45.229Z,15.72
2023-04-15T09:18:14.797Z,16.24
2023-04-15T09:20:57.301Z,16.05
2023-04-15T09:23:28.048Z,15.93
2023-04-15T09:25:58.941Z,15.55
2023-04-15T09:28:28.270Z,15.78
2023-04-15T09:31:01.475Z,15.98
2023-04-15T09:33:31.748Z,16.09
2023-04-15T09:36:03.773Z,16.13
2023-04-15T09:38:34.149Z,16.58
2023-04-15T09:41:02.903Z,16.90
2023-04-15T09:43:40.163Z,17.33
2023-04-15T09:46:10.578Z,17.76
2023-04-15T09:48:39.481Z,17.95
2023-04-15T09:51:08.146Z,17.75
2023-04-15T09:53:39.958Z,17.75
2023-04-15T09:56:10.580Z,17.99
2023-04-15T09:58:41.384Z,17.26
2023-04-15T10:01:11.982Z,17.16
2023-04-15T10:03:43.596Z,17.37
2023-04-15T10:06:13.544Z,17.52
2023-04-15T10:08:43.641Z,17.76
2023-04-15T10:11:14.381Z,17.06
2023-04-15T10:13:43.545Z,17.94
2023-04-15T10:16:20.462Z,17.98
2023-04-15T10:18:51.937Z,18.74
2023-04-15T10:21:23.924Z,18.27
2023-04-15T10:23:53.323Z,17.65
2023-04-15T10:26:22.579Z,17.28
2023-04-15T10:28:54.254Z,17.18
2023-04-15T10:31:25.300Z,18.16
2023-04-15T10:33:55.995Z,18.83
2023-04-15T10:36:24.985Z,19.34
2023-04-15T10:38:55.288Z,19.34
2023-04-15T10:41:28.318Z,18.98
2023-04-15T10:44:08.559Z,19.12
2023-04-15T10:49:55.587Z,19.19
2023-04-15T10:52:28.152Z,18.44
2023-04-15T10:55:17.132Z,18.15
2023-04-15T10:57:51.712Z,18.00
2023-04-15T11:00:23.736Z,18.07
2023-04-15T11:03:09.382Z,18.42
2023-04-15T11:05:44.551Z,18.80
2023-04-15T11:08:15.281Z,18.37
2023-04-15T11:10:50.832Z,17.88
2023-04-15T11:13:38.645Z,17.98
2023-04-15T11:16:33.862Z,18.62
2023-04-15T11:22:43.010Z,19.26
2023-04-15T11:25:13.483Z,19.76
2023-04-15T11:27:42.716Z,19.63
2023-04-15T11:30:28.271Z,19.63
2023-04-15T11:33:02.663Z,19.78
2023-04-15T11:35:35.724Z,18.80
2023-04-15T11:38:12.415Z,19.46
2023-04-15T11:40:47.538Z,20.23
2023-04-15T11:43:27.589Z,20.38
2023-04-15T11:46:04.067Z,20.79
2023-04-15T11:54:51.482Z,20.25
2023-04-15T11:57:20.547Z,19.29
2023-04-15T11:59:49.332Z,19.41
2023-04-15T12:02:21.104Z,19.51
2023-04-15T12:08:03.428Z,18.16
2023-04-15T12:10:40.994Z,18.49
2023-04-15T12:13:11.882Z,19.36
2023-04-15T12:16:13.315Z,18.78
2023-04-15T12:18:42.398Z,18.03
2023-04-15T12:21:12.999Z,18.23
2023-04-15T12:23:53.312Z,18.69
2023-04-15T12:26:32.852Z,18.48
2023-04-15T12:29:06.044Z,18.02
2023-04-15T12:31:38.697Z,18.58
2023-04-15T12:34:09.682Z,19.01
2023-04-15T12:36:56.789Z,18.77
2023-04-15T12:42:13.475Z,19.36
2023-04-15T12:44:42.522Z,19.57
2023-04-15T12:47:12.836Z,19.87
2023-04-15T12:49:42.149Z,20.05
2023-04-15T12:52:11.031Z,19.24
2023-04-15T12:54:41.138Z,19.17
2023-04-15T12:57:10.313Z,19.21
2023-04-15T12:59:43.510Z,18.40
2023-04-15T13:02:12.398Z,18.43
2023-04-15T13:04:42.884Z,18.08
2023-04-15T13:07:13.295Z,18.27
2023-04-15T13:09:42.026Z,19.37
2023-04-15T13:12:12.395Z,19.83
2023-04-15T13:14:41.558Z,18.76
2023-04-15T13:17:11.569Z,19.35
2023-04-15T13:19:41.042Z,19.03
2023-04-15T13:22:10.378Z,18.58
2023-04-15T13:24:40.793Z,19.44
2023-04-15T13:27:12.452Z,19.16
2023-04-15T13:29:41.220Z,19.07
2023-04-15T13:32:09.844Z,19.64
2023-04-15T13:34:40.075Z,20.00
2023-04-15T13:37:09.506Z,20.05
2023-04-15T13:39:38.268Z,19.66
2023-04-15T13:42:07.175Z,20.08
2023-04-15T13:54:10.703Z,18.35
2023-04-15T13:56:41.691Z,18.62
2023-04-15T13:59:11.524Z,18.59
2023-04-15T14:02:13.715Z,18.26
2023-04-15T14:07:51.229Z,19.02
2023-04-15T14:10:20.634Z,19.13
2023-04-15T14:12:50.123Z,19.33
2023-04-15T14:15:18.907Z,19.18
2023-04-15T14:17:58.836Z,18.98
2023-04-15T14:20:46.400Z,18.89
2023-04-15T14:26:57.184Z,19.09
2023-04-15T14:29:26.385Z,18.85
2023-04-15T14:32:07.213Z,18.84
2023-04-15T14:34:27.219Z,18.99
2023-04-15T14:36:58.850Z,19.14
2023-04-15T14:39:27.799Z,19.26
2023-04-15T14:41:56.982Z,19.41
2023-04-15T14:44:36.407Z,19.87
2023-04-15T14:53:21.677Z,20.24
2023-04-15T15:02:31.589Z,20.93
2023-04-15T15:04:59.090Z,21.46
2023-04-15T15:07:43.878Z,21.30
2023-04-15T15:13:58.853Z,20.99
2023-04-15T15:16:29.374Z,21.14
2023-04-15T15:18:58.310Z,21.64
2023-04-15T15:21:28.748Z,23.09
2023-04-15T15:23:57.591Z,23.91
2023-04-15T15:26:28.165Z,24.17
2023-04-15T15:28:57.030Z,24.29
2023-04-15T15:31:26.000Z,23.40
2023-04-15T15:33:54.809Z,23.39
2023-04-15T15:36:23.656Z,23.10
2023-04-15T15:38:52.979Z,22.41
2023-04-15T15:41:21.912Z,21.95
2023-04-15T15:43:50.663Z,22.43
2023-04-15T15:46:19.454Z,22.57
2023-04-15T15:48:48.360Z,22.91
2023-04-15T15:51:17.083Z,22.65
2023-04-15T15:53:45.993Z,22.16
2023-04-15T15:56:14.700Z,22.39
2023-04-15T15:58:48.208Z,21.65
2023-04-15T16:01:19.003Z,21.85
2023-04-15T16:03:52.433Z,21.53
2023-04-15T16:06:22.959Z,21.36
2023-04-15T16:08:55.217Z,21.29
2023-04-15T16:11:24.543Z,21.66
2023-04-15T16:17:52.346Z,21.21
2023-04-15T16:20:23.242Z,20.96
2023-04-15T16:23:08.339Z,20.36
2023-04-15T16:25:32.603Z,20.08
2023-04-15T16:28:11.496Z,19.76
2023-04-15T16:30:36.935Z,19.33
2023-04-15T16:33:11.644Z,18.92
2023-04-15T16:35:40.490Z,18.46
2023-04-15T16:38:09.150Z,17.89
2023-04-15T16:40:38.941Z,17.87
2023-04-15T16:43:10.232Z,17.71
2023-04-15T16:46:32.335Z,17.56
2023-04-15T16:49:02.834Z,17.52
2023-04-15T16:51:36.422Z,17.30
2023-04-15T16:54:05.272Z,17.22
2023-04-15T16:56:38.694Z,17.14
2023-04-15T16:59:07.630Z,16.99
2023-04-15T17:01:36.615Z,16.80
2023-04-15T17:04:05.889Z,16.67
2023-04-15T17:06:36.397Z,16.43
2023-04-15T17:09:11.623Z,16.13
2023-04-15T17:11:41.046Z,16.08
2023-04-15T17:14:10.235Z,16.01
2023-04-15T17:16:39.079Z,15.80
2023-04-15T17:19:08.023Z,15.71
2023-04-15T17:21:39.754Z,15.69
2023-04-15T17:24:08.523Z,15.53
2023-04-15T17:26:37.339Z,15.28
2023-04-15T17:29:06.501Z,15.15
2023-04-15T17:31:35.648Z,15.11
2023-04-15T17:34:09.793Z,15.05
2023-04-15T17:36:34.968Z,15.08
2023-04-15T17:39:04.000Z,15.00
2023-04-15T17:41:33.097Z,14.86
2023-04-15T17:44:01.829Z,14.79
2023-04-15T17:46:30.966Z,14.67
2023-04-15T17:48:59.732Z,14.56
2023-04-15T17:51:28.360Z,14.54
2023-04-15T17:53:57.083Z,14.47
2023-04-15T17:56:29.348Z,14.49
2023-04-15T17:59:00.680Z,14.59
2023-04-15T18:01:29.466Z,14.71
2023-04-15T18:03:58.387Z,14.69
2023-04-15T18:06:27.745Z,14.74
2023-04-15T18:08:56.420Z,14.72
2023-04-15T18:11:25.502Z,14.59
2023-04-15T18:13:54.080Z,14.48
2023-04-15T18:16:23.147Z,14.38
2023-04-15T18:18:52.346Z,14.23
2023-04-15T18:21:21.052Z,14.17
2023-04-15T18:23:49.761Z,14.04
2023-04-15T18:26:20.036Z,13.81
2023-04-15T18:28:48.862Z,13.71
2023-04-15T18:31:19.089Z,13.57
2023-04-15T18:33:47.901Z,13.51
2023-04-15T18:36:16.558Z,13.33
2023-04-15T18:38:47.085Z,13.27
2023-04-15T18:41:18.437Z,13.10
2023-04-15T18:43:47.039Z,13.15
2023-04-15T18:46:16.824Z,13.01
2023-04-15T18:48:45.500Z,13.01
2023-04-15T18:51:14.136Z,12.98
2023-04-15T18:53:44.583Z,12.94
2023-04-15T18:56:13.324Z,12.87
2023-04-15T18:59:09.218Z,12.87
2023-04-15T19:01:14.231Z,12.82
2023-04-15T19:03:42.926Z,12.78
2023-04-15T19:06:11.776Z,12.86
2023-04-15T19:08:40.548Z,12.90
2023-04-15T19:11:09.532Z,12.85
2023-04-15T19:16:57.895Z,13.01
2023-04-15T19:19:46.704Z,12.93
2023-04-15T19:22:15.982Z,12.86
2023-04-15T19:24:45.637Z,12.86
2023-04-15T19:27:14.428Z,12.95
2023-04-15T19:29:48.840Z,13.05
2023-04-15T19:32:17.708Z,13.06
2023-04-15T19:34:46.724Z,12.99
2023-04-15T19:37:16.776Z,12.90
2023-04-15T19:39:45.748Z,12.93
2023-04-15T19:42:16.074Z,12.83
2023-04-15T19:44:49.204Z,12.77
2023-04-15T19:47:18.229Z,12.72
2023-04-15T19:49:49.495Z,12.70
2023-04-15T19:52:26.638Z,12.57
2023-04-15T19:54:55.615Z,12.63
2023-04-15T19:57:24.630Z,12.82
2023-04-15T20:02:47.994Z,12.87
2023-04-15T20:05:23.481Z,12.85
2023-04-15T20:07:59.842Z,12.75
2023-04-15T20:11:12.166Z,12.69
2023-04-15T20:13:22.136Z,12.65
2023-04-15T20:15:54.889Z,12.64
2023-04-15T20:18:28.634Z,12.68
2023-04-15T20:20:58.545Z,12.71
2023-04-15T20:23:29.042Z,12.74
2023-04-15T20:26:01.886Z,12.77
2023-04-15T20:28:30.772Z,12.83
2023-04-15T20:31:32.297Z,12.79
2023-04-15T20:33:32.135Z,12.96
2023-04-15T20:36:01.089Z,12.92
2023-04-15T20:38:29.816Z,12.89
2023-04-15T20:40:58.424Z,12.88
2023-04-15T20:43:27.080Z,12.94
2023-04-15T20:46:07.020Z,12.94
2023-04-15T20:48:30.407Z,13.11
2023-04-15T20:51:03.726Z,13.03
2023-04-15T20:53:36.848Z,13.10
2023-04-15T20:56:08.990Z,13.01
2023-04-15T20:58:39.461Z,12.88
2023-04-15T21:01:31.720Z,12.87
2023-04-15T21:03:57.473Z,12.94
2023-04-15T21:06:27.770Z,12.96
2023-04-15T21:08:56.644Z,12.64
2023-04-15T21:11:46.374Z,12.89
2023-04-15T21:13:56.437Z,12.92
2023-04-15T21:16:25.454Z,12.88
2023-04-15T21:18:54.353Z,12.98
2023-04-15T21:21:23.091Z,12.98
2023-04-15T21:23:51.821Z,12.95
2023-04-15T21:26:22.174Z,12.72
2023-04-15T21:28:50.919Z,12.62
2023-04-15T21:31:23.634Z,12.75
2023-04-15T21:33:53.751Z,12.74
2023-04-15T21:36:23.075Z,12.82
2023-04-15T21:38:51.771Z,12.84
2023-04-15T21:41:20.608Z,12.75
2023-04-15T21:43:49.377Z,12.81
2023-04-15T21:46:23.033Z,12.80
2023-04-15T21:48:50.351Z,12.79
2023-04-15T21:51:19.124Z,12.73
2023-04-15T21:53:50.936Z,12.65
2023-04-15T21:56:21.682Z,12.63
2023-04-15T21:58:50.430Z,12.45
2023-04-15T22:01:19.145Z,12.55
2023-04-15T22:03:47.987Z,12.60
2023-04-15T22:06:16.767Z,12.57
2023-04-15T22:09:11.334Z,12.67
2023-04-15T22:11:25.448Z,12.64
2023-04-15T22:13:55.020Z,12.60
2023-04-15T22:16:24.039Z,12.55
2023-04-15T22:18:55.341Z,12.49
2023-04-15T22:21:24.288Z,12.18
2023-04-15T22:23:53.184Z,12.08
2023-04-15T22:26:23.553Z,11.98
2023-04-15T22:28:52.257Z,12.02
2023-04-15T22:31:22.459Z,12.15
2023-04-15T22:33:51.193Z,12.12
2023-04-15T22:36:19.858Z,12.28
2023-04-15T22:38:51.572Z,12.32
2023-04-15T22:41:22.771Z,12.31
2023-04-15T22:43:51.519Z,12.25
2023-04-15T22:46:23.469Z,12.15
2023-04-15T22:48:53.967Z,12.03
2023-04-15T22:51:29.322Z,11.99
2023-04-15T22:53:59.901Z,11.99
2023-04-15T22:56:28.565Z,11.92
2023-04-15T22:58:57.475Z,11.69
2023-04-15T23:01:26.329Z,11.59
2023-04-15T23:04:05.887Z,11.69
2023-04-15T23:06:27.210Z,11.62
2023-04-15T23:08:55.949Z,11.47
2023-04-15T23:11:24.648Z,11.52
2023-04-15T23:13:53.446Z,11.40
2023-04-15T23:16:22.211Z,11.29
2023-04-15T23:18:50.936Z,11.17
2023-04-15T23:21:19.653Z,11.18
2023-04-15T23:23:48.383Z,11.04
2023-04-15T23:26:17.026Z,11.13
2023-04-15T23:28:47.201Z,11.21
2023-04-15T23:31:16.106Z,11.42
2023-04-15T23:33:46.778Z,11.43
2023-04-15T23:36:15.283Z,11.14
2023-04-15T23:38:44.048Z,11.03
2023-04-15T23:41:14.217Z,10.82
2023-04-15T23:43:42.960Z,10.74
2023-04-15T23:46:14.020Z,10.79
2023-04-15T23:48:42.756Z,10.69
2023-04-15T23:51:11.450Z,10.64
2023-04-15T23:53:40.252Z,10.72
2023-04-15T23:56:09.054Z,10.74
2023-04-15T23:58:37.803Z,10.77
